createdAt,value
2022-08-27T08:42:42.410Z,9.430388
2022-08-27T08:43:42.485Z,9.430402
2022-08-27T08:44:42.445Z,9.430353
2022-08-27T08:45:42.513Z,9.430318
2022-08-27T08:46:43.452Z,9.430281
2022-08-27T08:47:42.411Z,9.430207
2022-08-27T08:48:42.967Z,9.430341
2022-08-27T08:49:42.421Z,9.430316
2022-08-27T08:50:42.336Z,9.430263
2022-08-27T08:51:42.368Z,9.430344
2022-08-27T08:52:42.347Z,9.430366
2022-08-27T08:53:42.330Z,9.430343
2022-08-27T08:54:42.325Z,9.430314
2022-08-27T08:55:42.319Z,9.430284
2022-08-27T08:56:42.296Z,9.430306
2022-08-27T08:57:42.270Z,9.430316
2022-08-27T08:58:42.252Z,9.430298
2022-08-27T08:59:42.283Z,9.430333
2022-08-27T09:00:42.237Z,9.430313
2022-08-27T09:01:42.290Z,9.430271
2022-08-27T09:02:42.202Z,9.430239
2022-08-27T09:03:42.310Z,9.430246
2022-08-27T09:04:42.252Z,9.430276
2022-08-27T09:05:42.262Z,9.430314
2022-08-27T09:06:42.216Z,9.430335
2022-08-27T09:07:42.189Z,9.430329
2022-08-27T09:08:42.406Z,9.430346
2022-08-27T09:09:42.157Z,9.430326
2022-08-27T09:10:42.161Z,9.430301
2022-08-27T09:11:42.126Z,9.430320
2022-08-27T09:12:42.115Z,9.430306
2022-08-27T09:13:42.121Z,9.430304
2022-08-27T09:14:45.165Z,9.430317
2022-08-27T09:15:42.081Z,9.430307
2022-08-27T09:16:42.110Z,9.430330
2022-08-27T09:17:42.073Z,9.430351
2022-08-27T09:18:42.073Z,9.430324
2022-08-27T09:19:42.045Z,9.430316
2022-08-27T09:20:42.054Z,9.430336
2022-08-27T09:21:42.005Z,9.430318
2022-08-27T09:22:42.021Z,9.430339
2022-08-27T09:23:42.026Z,9.430325
2022-08-27T09:24:42.007Z,9.430297
2022-08-27T09:25:41.988Z,9.430316
2022-08-27T09:26:41.969Z,9.430362
2022-08-27T09:27:41.985Z,9.430359
2022-08-27T09:28:41.973Z,9.430306
2022-08-27T09:29:41.912Z,9.430328
2022-08-27T09:30:41.986Z,9.430348
2022-08-27T09:31:41.944Z,9.430324
2022-08-27T09:32:41.899Z,9.430329
2022-08-27T09:33:56.785Z,9.430355
2022-08-27T09:34:42.887Z,9.430359
2022-08-27T09:35:41.877Z,9.430335
2022-08-27T09:36:41.871Z,9.430326
2022-08-27T09:37:41.863Z,9.430305
2022-08-27T09:38:41.900Z,9.430298
2022-08-27T09:39:42.808Z,9.430296
2022-08-27T09:40:41.853Z,9.430323
2022-08-27T09:41:42.556Z,9.430360
2022-08-27T09:42:41.845Z,9.430337
2022-08-27T09:43:41.784Z,9.430344
2022-08-27T09:44:41.822Z,9.430333
2022-08-27T09:45:41.823Z,9.430325
2022-08-27T09:46:41.753Z,9.430326
2022-08-27T09:47:41.793Z,9.430322
2022-08-27T09:48:41.776Z,9.430344
2022-08-27T09:49:41.852Z,9.430359
2022-08-27T09:50:43.793Z,9.430362
2022-08-27T09:51:42.713Z,9.430343
2022-08-27T09:52:41.684Z,9.430324
2022-08-27T09:53:42.682Z,9.430352
2022-08-27T09:54:41.673Z,9.430340
2022-08-27T09:55:41.644Z,9.430310
2022-08-27T09:56:41.633Z,9.430366
2022-08-27T09:57:41.689Z,9.430321
2022-08-27T09:58:41.588Z,9.430298
2022-08-27T09:59:41.608Z,9.430328
2022-08-27T10:00:41.645Z,9.430333
2022-08-27T10:01:41.642Z,9.430307
2022-08-27T10:02:41.558Z,9.430369
2022-08-27T10:03:41.621Z,9.430379
2022-08-27T10:04:51.232Z,9.430350
2022-08-27T10:05:42.578Z,9.430371
2022-08-27T10:06:41.533Z,9.430383
2022-08-27T10:07:41.516Z,9.430376
2022-08-27T10:08:41.530Z,9.430325
2022-08-27T10:09:41.493Z,9.430340
2022-08-27T10:10:41.489Z,9.430393
2022-08-27T10:11:41.478Z,9.430359
2022-08-27T10:12:41.473Z,9.430318
2022-08-27T10:13:41.458Z,9.430315
2022-08-27T10:14:41.445Z,9.430339
2022-08-27T10:16:15.011Z,9.430363
2022-08-27T10:16:41.475Z,9.430365
2022-08-27T10:17:41.389Z,9.430386
2022-08-27T10:18:41.567Z,9.430320
2022-08-27T10:19:41.437Z,9.430348
2022-08-27T10:20:41.450Z,9.430357
2022-08-27T10:21:41.423Z,9.430376
2022-08-27T10:22:41.392Z,9.430382
2022-08-27T10:23:41.423Z,9.430367
2022-08-27T10:24:41.382Z,9.430349
2022-08-27T10:25:41.442Z,9.430343
2022-08-27T10:26:41.329Z,9.430380
2022-08-27T10:27:41.312Z,9.430338
2022-08-27T10:28:41.539Z,9.430357
2022-08-27T10:29:41.273Z,9.430355
2022-08-27T10:30:41.276Z,9.430330
2022-08-27T10:31:41.369Z,9.430384
2022-08-27T10:32:41.245Z,9.430377
2022-08-27T10:33:41.399Z,9.430346
2022-08-27T10:34:43.364Z,9.430350
2022-08-27T10:35:53.695Z,9.430331
2022-08-27T10:36:42.367Z,9.430336
2022-08-27T10:37:41.225Z,9.430357
2022-08-27T10:38:44.574Z,9.430346
2022-08-27T10:39:42.189Z,9.430325
2022-08-27T10:40:41.262Z,9.430344
2022-08-27T10:41:41.174Z,9.430341
2022-08-27T10:42:41.173Z,9.430326
2022-08-27T10:43:41.146Z,9.430330
2022-08-27T10:44:43.102Z,9.430340
2022-08-27T10:45:41.150Z,9.430336
2022-08-27T10:46:50.145Z,9.430350
2022-08-27T10:47:42.145Z,9.430323
2022-08-27T10:48:41.102Z,9.430364
2022-08-27T10:49:41.072Z,9.430355
2022-08-27T10:50:41.125Z,9.430315
2022-08-27T10:51:41.097Z,9.430338
2022-08-27T10:52:41.022Z,9.430335
2022-08-27T10:53:41.123Z,9.430324
2022-08-27T10:54:41.012Z,9.430343
2022-08-27T10:55:42.005Z,9.430342
2022-08-27T10:56:41.069Z,9.430354
2022-08-27T10:57:56.359Z,9.430367
2022-08-27T10:58:43.046Z,9.430376
2022-08-27T10:59:40.975Z,9.430367
2022-08-27T11:00:41.048Z,9.430354
2022-08-27T11:01:40.942Z,9.430359
2022-08-27T11:02:41.054Z,9.430339
2022-08-27T11:03:41.171Z,9.430353
2022-08-27T11:04:40.915Z,9.430375
2022-08-27T11:05:40.979Z,9.430359
2022-08-27T11:06:42.571Z,9.430340
2022-08-27T11:07:40.908Z,9.430312
2022-08-27T11:08:40.873Z,9.430296
2022-08-27T11:09:40.892Z,9.430353
2022-08-27T11:10:40.848Z,9.430342
2022-08-27T11:12:12.696Z,9.430305
2022-08-27T11:12:42.799Z,9.430384
2022-08-27T11:13:40.808Z,9.430321
2022-08-27T11:14:40.783Z,9.430327
2022-08-27T11:15:40.784Z,9.430341
2022-08-27T11:16:45.277Z,9.430333
2022-08-27T11:17:41.759Z,9.430363
2022-08-27T11:18:40.814Z,9.430349
2022-08-27T11:19:40.832Z,9.430367
2022-08-27T11:20:40.879Z,9.430369
2022-08-27T11:21:40.739Z,9.430372
2022-08-27T11:22:40.752Z,9.430373
2022-08-27T11:23:40.716Z,9.430348
2022-08-27T11:24:40.692Z,9.430339
2022-08-27T11:25:40.665Z,9.430367
2022-08-27T11:26:40.656Z,9.430337
2022-08-27T11:27:40.715Z,9.430431
2022-08-27T11:28:40.848Z,9.430393
2022-08-27T11:29:40.688Z,9.430422
2022-08-27T11:30:40.588Z,9.430370
2022-08-27T11:31:40.692Z,9.430385
2022-08-27T11:32:40.605Z,9.430430
2022-08-27T11:33:44.081Z,9.430349
2022-08-27T11:34:41.649Z,9.430375
2022-08-27T11:35:40.576Z,9.430350
2022-08-27T11:36:40.572Z,9.430377
2022-08-27T11:37:40.608Z,9.430377
2022-08-27T11:38:40.576Z,9.430358
2022-08-27T11:39:40.501Z,9.430354
2022-08-27T11:40:40.587Z,9.430400
2022-08-27T11:41:44.514Z,9.430391
2022-08-27T11:42:40.503Z,9.430385
2022-08-27T11:43:40.528Z,9.430417
2022-08-27T11:44:41.000Z,9.430321
2022-08-27T11:45:40.484Z,9.430336
2022-08-27T11:46:40.562Z,9.430388
2022-08-27T11:47:40.421Z,9.430407
2022-08-27T11:48:40.437Z,9.430402
2022-08-27T11:49:40.432Z,9.430365
2022-08-27T11:50:40.436Z,9.430326
2022-08-27T11:51:40.469Z,9.430370
2022-08-27T11:52:40.357Z,9.430393
2022-08-27T11:53:41.353Z,9.430368
2022-08-27T11:54:41.348Z,9.430352
2022-08-27T11:55:40.322Z,9.430380
2022-08-27T11:56:40.550Z,9.430392
2022-08-27T11:57:41.358Z,9.430366
2022-08-27T11:58:52.612Z,9.430323
2022-08-27T11:59:41.287Z,9.430366
2022-08-27T12:00:40.297Z,9.430377
2022-08-27T12:01:40.321Z,9.430399
2022-08-27T12:02:40.258Z,9.430350
2022-08-27T12:03:40.269Z,9.430348
2022-08-27T12:04:40.327Z,9.430348
2022-08-27T12:05:40.267Z,9.430396
2022-08-27T12:06:40.246Z,9.430371
2022-08-27T12:07:40.218Z,9.430350
2022-08-27T12:08:40.337Z,9.430372
2022-08-27T12:09:40.218Z,9.430387
2022-08-27T12:10:40.203Z,9.430346
2022-08-27T12:11:40.338Z,9.430311
2022-08-27T12:12:40.259Z,9.430357
2022-08-27T12:13:40.138Z,9.430391
2022-08-27T12:14:40.142Z,9.430362
2022-08-27T12:15:40.165Z,9.430385
2022-08-27T12:16:40.116Z,9.430415
2022-08-27T12:17:40.118Z,9.430416
2022-08-27T12:18:41.110Z,9.430375
2022-08-27T12:19:40.129Z,9.430356
2022-08-27T12:20:40.086Z,9.430369
2022-08-27T12:21:40.234Z,9.430346
2022-08-27T12:22:40.324Z,9.430352
2022-08-27T12:23:40.098Z,9.430357
2022-08-27T12:24:40.054Z,9.430339
2022-08-27T12:25:40.051Z,9.430338
2022-08-27T12:26:39.986Z,9.430310
2022-08-27T12:27:40.058Z,9.430354
2022-08-27T12:28:40.048Z,9.430356
2022-08-27T12:29:42.234Z,9.430285
2022-08-27T12:30:39.958Z,9.430296
2022-08-27T12:31:40.105Z,9.430360
2022-08-27T12:32:39.919Z,9.430356
2022-08-27T12:33:39.974Z,9.430358
2022-08-27T12:34:39.941Z,9.430367
2022-08-27T12:35:39.953Z,9.430410
2022-08-27T12:36:39.952Z,9.430375
2022-08-27T12:37:39.913Z,9.430349
2022-08-27T12:38:39.901Z,9.430354
2022-08-27T12:39:39.825Z,9.430326
2022-08-27T12:40:39.931Z,9.430338
2022-08-27T12:41:44.163Z,9.430352
2022-08-27T12:42:39.894Z,9.430347
2022-08-27T12:43:39.854Z,9.430372
2022-08-27T12:44:39.818Z,9.430295
2022-08-27T12:45:40.127Z,9.430353
2022-08-27T12:46:39.822Z,9.430381
2022-08-27T12:47:39.777Z,9.430381
2022-08-27T12:48:39.846Z,9.430365
2022-08-27T12:49:39.781Z,9.430428
2022-08-27T12:50:39.758Z,9.430449
2022-08-27T12:51:39.810Z,9.430437
2022-08-27T12:52:39.748Z,9.430400
2022-08-27T12:53:39.739Z,9.430339
2022-08-27T12:54:39.850Z,9.430285
2022-08-27T12:55:39.742Z,9.430381
2022-08-27T12:56:39.690Z,9.430400
2022-08-27T12:57:39.678Z,9.430385
2022-08-27T12:58:39.646Z,9.430355
2022-08-27T12:59:39.714Z,9.430403
2022-08-27T13:00:39.759Z,9.430356
2022-08-27T13:01:41.061Z,9.430350
2022-08-27T13:02:39.600Z,9.430293
2022-08-27T13:03:39.706Z,9.430304
2022-08-27T13:04:39.727Z,9.430318
2022-08-27T13:05:40.270Z,9.430361
2022-08-27T13:06:39.615Z,9.430359
2022-08-27T13:07:42.503Z,9.430307
2022-08-27T13:08:40.671Z,9.430345
2022-08-27T13:09:39.544Z,9.430326
2022-08-27T13:10:39.556Z,9.430370
2022-08-27T13:11:39.535Z,9.430400
2022-08-27T13:12:39.548Z,9.430367
2022-08-27T13:13:39.531Z,9.430381
2022-08-27T13:14:39.523Z,9.430368
2022-08-27T13:15:39.507Z,9.430372
2022-08-27T13:16:40.057Z,9.430417
2022-08-27T13:17:40.475Z,9.430367
2022-08-27T13:18:39.467Z,9.430382
2022-08-27T13:19:39.467Z,9.430339
2022-08-27T13:20:39.483Z,9.430327
2022-08-27T13:21:39.412Z,9.430348
2022-08-27T13:22:39.488Z,9.430335
2022-08-27T13:23:39.376Z,9.430358
2022-08-27T13:24:39.413Z,9.430326
2022-08-27T13:25:39.473Z,9.430365
2022-08-27T13:26:39.611Z,9.430383
2022-08-27T13:27:39.377Z,9.430334
2022-08-27T13:28:39.340Z,9.430293
2022-08-27T13:29:39.337Z,9.430339
2022-08-27T13:30:39.337Z,9.430371
2022-08-27T13:31:39.447Z,9.430375
2022-08-27T13:32:39.329Z,9.430328
2022-08-27T13:33:39.338Z,9.430348
2022-08-27T13:34:39.309Z,9.430351
2022-08-27T13:35:39.441Z,9.430329
2022-08-27T13:36:39.264Z,9.430335
2022-08-27T13:37:39.541Z,9.430361
2022-08-27T13:38:39.242Z,9.430367
2022-08-27T13:39:39.249Z,9.430321
2022-08-27T13:40:39.965Z,9.430370
2022-08-27T13:41:39.187Z,9.430387
2022-08-27T13:42:39.197Z,9.430326
2022-08-27T13:43:39.186Z,9.430285
2022-08-27T13:44:39.133Z,9.430315
2022-08-27T13:45:39.137Z,9.430360
2022-08-27T13:46:39.435Z,9.430360
2022-08-27T13:47:39.157Z,9.430335
2022-08-27T13:48:39.129Z,9.430323
2022-08-27T13:49:39.909Z,9.430403
2022-08-27T13:50:39.893Z,9.430386
2022-08-27T13:51:39.109Z,9.430419
2022-08-27T13:52:39.238Z,9.430362
2022-08-27T13:53:39.126Z,9.430387
2022-08-27T13:54:39.377Z,9.430339
2022-08-27T13:55:39.025Z,9.430335
2022-08-27T13:56:39.997Z,9.430341
2022-08-27T13:57:39.046Z,9.430338
2022-08-27T13:58:39.274Z,9.430343
2022-08-27T13:59:42.882Z,9.430408
2022-08-27T14:00:39.994Z,9.430386
2022-08-27T14:01:39.389Z,9.430396
2022-08-27T14:02:39.291Z,9.430362
2022-08-27T14:03:38.980Z,9.430334
2022-08-27T14:04:39.062Z,9.430345
2022-08-27T14:05:38.895Z,9.430387
2022-08-27T14:06:38.901Z,9.430461
2022-08-27T14:07:38.958Z,9.430455
2022-08-27T14:08:38.918Z,9.430463
2022-08-27T14:09:39.094Z,9.430448
2022-08-27T14:10:39.206Z,9.430405
2022-08-27T14:11:38.854Z,9.430404
2022-08-27T14:12:39.326Z,9.430416
2022-08-27T14:13:39.038Z,9.430397
2022-08-27T14:14:39.039Z,9.430440
2022-08-27T14:15:39.016Z,9.430389
2022-08-27T14:16:38.815Z,9.430380
2022-08-27T14:17:38.920Z,9.430370
2022-08-27T14:18:59.638Z,9.430369
2022-08-27T14:19:40.794Z,9.430327
2022-08-27T14:20:38.985Z,9.430354
2022-08-27T14:21:38.865Z,9.430359
2022-08-27T14:22:38.896Z,9.430387
2022-08-27T14:23:38.788Z,9.430364
2022-08-27T14:24:38.733Z,9.430353
2022-08-27T14:25:38.800Z,9.430361
2022-08-27T14:26:38.764Z,9.430354
2022-08-27T14:27:38.876Z,9.430355
2022-08-27T14:28:38.696Z,9.430381
2022-08-27T14:29:38.628Z,9.430351
2022-08-27T14:30:38.722Z,9.430351
2022-08-27T14:31:39.364Z,9.430354
2022-08-27T14:32:39.214Z,9.430377
2022-08-27T14:33:38.706Z,9.430371
2022-08-27T14:34:38.636Z,9.430361
2022-08-27T14:35:38.857Z,9.430374
2022-08-27T14:36:38.582Z,9.430361
2022-08-27T14:37:38.582Z,9.430377
2022-08-27T14:38:40.881Z,9.430386
2022-08-27T14:39:38.626Z,9.430367
2022-08-27T14:40:38.704Z,9.430361
2022-08-27T14:41:38.603Z,9.430356
2022-08-27T14:42:38.749Z,9.430377
2022-08-27T14:43:38.961Z,9.430319
2022-08-27T14:44:38.933Z,9.430331
2022-08-27T14:45:38.593Z,9.430323
2022-08-27T14:46:42.839Z,9.430343
2022-08-27T14:47:39.509Z,9.430364
2022-08-27T14:48:38.630Z,9.430364
2022-08-27T14:49:38.510Z,9.430386
2022-08-27T14:50:38.421Z,9.430317
2022-08-27T14:51:38.737Z,9.430274
2022-08-27T14:52:38.716Z,9.430335
2022-08-27T14:53:38.413Z,9.430359
2022-08-27T14:54:38.389Z,9.430338
2022-08-27T14:55:38.446Z,9.430355
2022-08-27T14:56:38.521Z,9.430322
2022-08-27T14:57:38.406Z,9.430360
2022-08-27T14:58:38.348Z,9.430301
2022-08-27T14:59:39.090Z,9.430370
2022-08-27T15:00:38.646Z,9.430377
2022-08-27T15:01:38.685Z,9.430370
2022-08-27T15:02:38.312Z,9.430360
2022-08-27T15:03:38.429Z,9.430368
2022-08-27T15:04:38.864Z,9.430396
2022-08-27T15:05:38.382Z,9.430393
2022-08-27T15:06:38.346Z,9.430375
2022-08-27T15:07:39.063Z,9.430324
2022-08-27T15:08:39.121Z,9.430335
2022-08-27T15:09:38.254Z,9.430347
2022-08-27T15:11:39.318Z,9.430334
2022-08-27T15:12:38.204Z,9.430348
2022-08-27T15:13:38.287Z,9.430355
2022-08-27T15:14:38.203Z,9.430353
2022-08-27T15:15:38.238Z,9.430349
2022-08-27T15:16:38.174Z,9.430347
2022-08-27T15:17:38.146Z,9.430355
2022-08-27T15:18:38.122Z,9.430332
2022-08-27T15:19:38.151Z,9.430353
2022-08-27T15:20:38.146Z,9.430372
2022-08-27T15:21:38.298Z,9.430341
2022-08-27T15:22:40.176Z,9.430321
2022-08-27T15:23:39.216Z,9.430324
2022-08-27T15:24:38.160Z,9.430334
2022-08-27T15:25:38.227Z,9.430346
2022-08-27T15:26:38.363Z,9.430368
2022-08-27T15:27:39.018Z,9.430338
2022-08-27T15:28:38.084Z,9.430335
2022-08-27T15:29:38.083Z,9.430264
2022-08-27T15:30:38.120Z,9.430293
2022-08-27T15:31:38.353Z,9.430352
2022-08-27T15:32:38.007Z,9.430382
2022-08-27T15:33:38.075Z,9.430343
2022-08-27T15:34:38.222Z,9.430286
2022-08-27T15:35:38.074Z,9.430348
2022-08-27T15:36:38.978Z,9.430289
2022-08-27T15:37:40.478Z,9.430292
2022-08-27T15:38:38.969Z,9.430319
2022-08-27T15:39:38.367Z,9.430285
2022-08-27T15:40:38.447Z,9.430405
2022-08-27T15:41:50.850Z,9.430332
2022-08-27T15:42:40.216Z,9.430304
2022-08-27T15:43:37.871Z,9.430326
2022-08-27T15:44:38.075Z,9.430361
2022-08-27T15:45:37.856Z,9.430353
2022-08-27T15:46:38.107Z,9.430326
2022-08-27T15:47:37.891Z,9.430335
2022-08-27T15:48:37.926Z,9.430320
2022-08-27T15:49:37.799Z,9.430336
2022-08-27T15:50:37.848Z,9.430320
2022-08-27T15:51:38.040Z,9.430329
2022-08-27T15:52:40.822Z,9.430306
2022-08-27T15:53:37.836Z,9.430312
2022-08-27T15:54:37.876Z,9.430327
2022-08-27T15:55:37.899Z,9.430328
2022-08-27T15:56:37.763Z,9.430327
2022-08-27T15:57:37.706Z,9.430332
2022-08-27T15:58:37.669Z,9.430320
2022-08-27T15:59:37.889Z,9.430320
2022-08-27T16:00:37.668Z,9.430278
2022-08-27T16:01:37.713Z,9.430337
2022-08-27T16:02:37.684Z,9.430340
2022-08-27T16:03:37.631Z,9.430322
2022-08-27T16:04:37.636Z,9.430277
2022-08-27T16:05:37.707Z,9.430345
2022-08-27T16:06:38.128Z,9.430317
2022-08-27T16:07:37.700Z,9.430327
2022-08-27T16:08:42.054Z,9.430331
2022-08-27T16:09:38.190Z,9.430329
2022-08-27T16:10:37.702Z,9.430346
2022-08-27T16:11:37.646Z,9.430350
2022-08-27T16:12:37.614Z,9.430331
2022-08-27T16:13:37.575Z,9.430301
2022-08-27T16:14:37.630Z,9.430280
2022-08-27T16:15:37.553Z,9.430320
2022-08-27T16:16:37.594Z,9.430333
2022-08-27T16:17:37.743Z,9.430329
2022-08-27T16:18:37.495Z,9.430318
2022-08-27T16:19:38.538Z,9.430309
2022-08-27T16:20:37.470Z,9.430302
2022-08-27T16:21:37.493Z,9.430309
2022-08-27T16:22:37.511Z,9.430305
2022-08-27T16:23:37.508Z,9.430269
2022-08-27T16:24:37.470Z,9.430316
2022-08-27T16:25:37.493Z,9.430321
2022-08-27T16:26:37.435Z,9.430318
2022-08-27T16:27:37.377Z,9.430327
2022-08-27T16:28:37.515Z,9.430329
2022-08-27T16:29:37.392Z,9.430326
2022-08-27T16:30:37.524Z,9.430326
2022-08-27T16:31:37.473Z,9.430309
2022-08-27T16:32:37.360Z,9.430290
2022-08-27T16:33:40.286Z,9.430307
2022-08-27T16:34:37.335Z,9.430319
2022-08-27T16:35:37.483Z,9.430323
2022-08-27T16:36:37.439Z,9.430321
2022-08-27T16:37:37.291Z,9.430309
2022-08-27T16:38:37.293Z,9.430319
2022-08-27T16:39:40.588Z,9.430334
2022-08-27T16:40:38.350Z,9.430328
2022-08-27T16:41:37.377Z,9.430301
2022-08-27T16:42:37.252Z,9.430314
2022-08-27T16:43:37.316Z,9.430316
2022-08-27T16:44:37.303Z,9.430328
2022-08-27T16:45:38.180Z,9.430358
2022-08-27T16:46:37.216Z,9.430392
2022-08-27T16:47:38.088Z,9.430348
2022-08-27T16:48:37.164Z,9.430345
2022-08-27T16:49:38.071Z,9.430333
2022-08-27T16:50:37.188Z,9.430339
2022-08-27T16:51:37.173Z,9.430329
2022-08-27T16:52:37.121Z,9.430335
2022-08-27T16:53:37.184Z,9.430346
2022-08-27T16:54:37.088Z,9.430334
2022-08-27T16:55:37.117Z,9.430326
2022-08-27T16:56:37.838Z,9.430317
2022-08-27T16:57:38.057Z,9.430316
2022-08-27T16:58:37.052Z,9.430334
2022-08-27T16:59:37.085Z,9.430333
2022-08-27T17:00:37.020Z,9.430332
2022-08-27T17:01:37.164Z,9.430345
2022-08-27T17:02:37.037Z,9.430351
2022-08-27T17:03:58.011Z,9.430351
2022-08-27T17:04:41.960Z,9.430335
2022-08-27T17:05:37.985Z,9.430344
2022-08-27T17:06:37.958Z,9.430273
2022-08-27T17:07:36.998Z,9.430353
2022-08-27T17:08:47.715Z,9.430286
2022-08-27T17:09:37.933Z,9.430304
2022-08-27T17:10:37.000Z,9.430314
2022-08-27T17:11:37.005Z,9.430320
2022-08-27T17:12:37.017Z,9.430334
2022-08-27T17:13:37.657Z,9.430322
2022-08-27T17:14:36.859Z,9.430339
2022-08-27T17:15:36.931Z,9.430287
2022-08-27T17:16:36.958Z,9.430268
2022-08-27T17:17:36.887Z,9.430292
2022-08-27T17:18:36.827Z,9.430294
2022-08-27T17:19:37.323Z,9.430326
2022-08-27T17:20:36.785Z,9.430327
2022-08-27T17:21:36.874Z,9.430314
2022-08-27T17:22:36.842Z,9.430290
2022-08-27T17:23:36.817Z,9.430280
2022-08-27T17:24:36.891Z,9.430305
2022-08-27T17:25:36.838Z,9.430340
2022-08-27T17:26:36.754Z,9.430374
2022-08-27T17:27:36.766Z,9.430419
2022-08-27T17:28:36.706Z,9.430336
2022-08-27T17:29:36.730Z,9.430329
2022-08-27T17:30:36.803Z,9.430347
2022-08-27T17:31:36.734Z,9.430308
2022-08-27T17:32:36.697Z,9.430327
2022-08-27T17:33:36.667Z,9.430354
2022-08-27T17:34:36.635Z,9.430317
2022-08-27T17:35:36.595Z,9.430306
2022-08-27T17:36:36.646Z,9.430344
2022-08-27T17:37:36.603Z,9.430333
2022-08-27T17:38:36.639Z,9.430322
2022-08-27T17:39:36.574Z,9.430305
2022-08-27T17:40:36.599Z,9.430320
2022-08-27T17:41:36.635Z,9.430342
2022-08-27T17:42:36.550Z,9.430356
2022-08-27T17:43:36.572Z,9.430339
2022-08-27T17:44:36.518Z,9.430359
2022-08-27T17:45:36.705Z,9.430306
2022-08-27T17:46:36.519Z,9.430303
2022-08-27T17:47:36.487Z,9.430290
2022-08-27T17:48:36.515Z,9.430333
2022-08-27T17:49:36.471Z,9.430379
2022-08-27T17:50:36.440Z,9.430362
2022-08-27T17:51:36.556Z,9.430286
2022-08-27T17:53:09.767Z,9.430256
2022-08-27T17:53:38.139Z,9.430284
2022-08-27T17:54:41.478Z,9.430292
2022-08-27T17:55:38.986Z,9.430325
2022-08-27T17:56:38.079Z,9.430309
2022-08-27T17:57:41.478Z,9.430277
2022-08-27T17:58:39.972Z,9.430301
2022-08-27T17:59:37.334Z,9.430321
2022-08-27T18:00:38.841Z,9.430316
2022-08-27T18:01:37.504Z,9.430309
2022-08-27T18:02:36.601Z,9.430330
2022-08-27T18:03:44.288Z,9.430331
2022-08-27T18:04:37.450Z,9.430336
2022-08-27T18:05:36.249Z,9.430322
2022-08-27T18:06:36.285Z,9.430319
2022-08-27T18:07:39.817Z,9.430308
2022-08-27T18:08:37.309Z,9.430303
2022-08-27T18:09:36.269Z,9.430277
2022-08-27T18:10:36.237Z,9.430279
2022-08-27T18:11:36.445Z,9.430308
2022-08-27T18:12:38.993Z,9.430301
2022-08-27T18:13:36.426Z,9.430318
2022-08-27T18:14:36.414Z,9.430327
2022-08-27T18:15:39.093Z,9.430298
2022-08-27T18:16:37.930Z,9.430301
2022-08-27T18:17:38.839Z,9.430276
2022-08-27T18:18:39.033Z,9.430306
2022-08-27T18:19:37.527Z,9.430300
2022-08-27T18:20:40.739Z,9.430228
2022-08-27T18:21:42.749Z,9.430299
2022-08-27T18:22:40.988Z,9.430264
2022-08-27T18:23:38.931Z,9.430283
2022-08-27T18:24:38.914Z,9.430243
2022-08-27T18:25:37.595Z,9.430264
2022-08-27T18:26:38.884Z,9.430302
2022-08-27T18:27:36.470Z,9.430301
2022-08-27T18:28:38.723Z,9.430349
2022-08-27T18:29:36.478Z,9.430379
2022-08-27T18:30:36.099Z,9.430363
2022-08-27T18:31:35.994Z,9.430390
2022-08-27T18:32:36.007Z,9.430387
2022-08-27T18:33:35.999Z,9.430349
2022-08-27T18:34:35.978Z,9.430323
2022-08-27T18:35:35.979Z,9.430339
2022-08-27T18:36:35.958Z,9.430276
2022-08-27T18:37:35.922Z,9.430351
2022-08-27T18:38:35.960Z,9.430331
2022-08-27T18:39:39.472Z,9.430329
2022-08-27T18:40:39.562Z,9.430350
2022-08-27T18:41:40.287Z,9.430352
2022-08-27T18:42:36.332Z,9.430304
2022-08-27T18:43:36.336Z,9.430326
2022-08-27T18:44:35.871Z,9.430324
2022-08-27T18:45:35.918Z,9.430305
2022-08-27T18:46:35.829Z,9.430324
2022-08-27T18:47:35.838Z,9.430366
2022-08-27T18:48:35.829Z,9.430326
2022-08-27T18:49:35.854Z,9.430383
2022-08-27T18:50:35.854Z,9.430355
2022-08-27T18:51:37.788Z,9.430355
2022-08-27T18:52:38.697Z,9.430330
2022-08-27T18:53:38.544Z,9.430343
2022-08-27T18:54:40.064Z,9.430347
2022-08-27T18:55:38.287Z,9.430332
2022-08-27T18:56:39.136Z,9.430299
2022-08-27T18:57:40.973Z,9.430359
2022-08-27T18:58:36.984Z,9.430329
2022-08-27T18:59:39.680Z,9.430322
2022-08-27T19:00:37.052Z,9.430309
2022-08-27T19:01:37.306Z,9.430284
2022-08-27T19:02:35.789Z,9.430272
2022-08-27T19:03:35.709Z,9.430295
2022-08-27T19:04:35.636Z,9.430392
2022-08-27T19:05:35.632Z,9.430420
2022-08-27T19:06:36.646Z,9.430417
2022-08-27T19:07:35.651Z,9.430400
2022-08-27T19:08:35.711Z,9.430348
2022-08-27T19:09:36.473Z,9.430313
2022-08-27T19:10:35.603Z,9.430318
2022-08-27T19:11:37.324Z,9.430379
2022-08-27T19:12:38.539Z,9.430320
2022-08-27T19:13:38.867Z,9.430302
2022-08-27T19:14:37.897Z,9.430307
2022-08-27T19:15:38.671Z,9.430318
2022-08-27T19:16:38.291Z,9.430320
2022-08-27T19:17:40.572Z,9.430317
2022-08-27T19:18:35.526Z,9.430303
2022-08-27T19:19:35.659Z,9.430320
2022-08-27T19:20:35.475Z,9.430325
2022-08-27T19:21:35.461Z,9.430291
2022-08-27T19:22:35.513Z,9.430308
2022-08-27T19:24:08.252Z,9.430340
2022-08-27T19:25:07.813Z,9.430340
2022-08-27T19:25:37.183Z,9.430361
2022-08-27T19:26:37.073Z,9.430355
2022-08-27T19:27:40.025Z,9.430333
2022-08-27T19:28:38.274Z,9.430339
2022-08-27T19:29:39.009Z,9.430346
2022-08-27T19:30:36.829Z,9.430323
2022-08-27T19:31:37.005Z,9.430306
2022-08-27T19:32:38.075Z,9.430304
2022-08-27T19:33:39.665Z,9.430318
2022-08-27T19:34:36.947Z,9.430308
2022-08-27T19:35:36.912Z,9.430320
2022-08-27T19:36:37.401Z,9.430402
2022-08-27T19:37:39.508Z,9.430419
2022-08-27T19:38:36.920Z,9.430421
2022-08-27T19:39:35.288Z,9.430348
2022-08-27T19:40:35.338Z,9.430335
2022-08-27T19:41:35.263Z,9.430323
2022-08-27T19:42:35.288Z,9.430333
2022-08-27T19:43:36.209Z,9.430359
2022-08-27T19:44:35.584Z,9.430366
2022-08-27T19:45:35.224Z,9.430344
2022-08-27T19:46:35.237Z,9.430372
2022-08-27T19:47:35.147Z,9.430339
2022-08-27T19:48:35.181Z,9.430325
2022-08-27T19:49:36.032Z,9.430354
2022-08-27T19:50:35.149Z,9.430299
2022-08-27T19:51:35.136Z,9.430422
2022-08-27T19:52:35.145Z,9.430456
2022-08-27T19:53:35.127Z,9.430379
2022-08-27T19:54:40.076Z,9.430346
2022-08-27T19:55:37.670Z,9.430307
2022-08-27T19:56:35.434Z,9.430292
2022-08-27T19:57:35.078Z,9.430279
2022-08-27T19:58:35.077Z,9.430319
2022-08-27T19:59:35.067Z,9.430330
2022-08-27T20:00:35.103Z,9.430348
2022-08-27T20:01:35.506Z,9.430340
2022-08-27T20:02:37.948Z,9.430337
2022-08-27T20:03:37.878Z,9.430329
2022-08-27T20:04:47.686Z,9.430346
2022-08-27T20:05:40.092Z,9.430333
2022-08-27T20:06:36.448Z,9.430316
2022-08-27T20:07:36.222Z,9.430334
2022-08-27T20:08:37.513Z,9.430358
2022-08-27T20:09:38.836Z,9.430348
2022-08-27T20:10:37.765Z,9.430336
2022-08-27T20:11:36.328Z,9.430351
2022-08-27T20:12:38.160Z,9.430328
2022-08-27T20:13:37.982Z,9.430335
2022-08-27T20:14:41.186Z,9.430325
2022-08-27T20:15:38.030Z,9.430305
2022-08-27T20:16:38.097Z,9.430343
2022-08-27T20:17:39.305Z,9.430359
2022-08-27T20:18:39.036Z,9.430315
2022-08-27T20:19:38.789Z,9.430315
2022-08-27T20:20:35.698Z,9.430312
2022-08-27T20:21:34.885Z,9.430314
2022-08-27T20:22:34.864Z,9.430342
2022-08-27T20:23:34.856Z,9.430340
2022-08-27T20:24:34.918Z,9.430330
2022-08-27T20:25:34.788Z,9.430324
2022-08-27T20:26:34.864Z,9.430326
2022-08-27T20:27:34.776Z,9.430291